sensor_id;sensor_type;location;lat;lon;timestamp;pressure;altitude;pressure_sealevel;temperature;humidity
28628;BME280;15815;46.760;19.604;2023-08-06T00:00:22;98990.09;;;23.02;95.70
28628;BME280;15815;46.760;19.604;2023-08-06T00:02:48;98982.25;;;22.97;95.45
28628;BME280;15815;46.760;19.604;2023-08-06T00:05:14;98974.97;;;22.96;94.85
28628;BME280;15815;46.760;19.604;2023-08-06T00:07:43;98979.41;;;23.03;95.18
28628;BME280;15815;46.760;19.604;2023-08-06T00:10:09;98965.06;;;22.97;96.01
28628;BME280;15815;46.760;19.604;2023-08-06T00:12:35;98965.06;;;22.97;95.20
28628;BME280;15815;46.760;19.604;2023-08-06T00:15:00;98956.25;;;22.84;96.07
28628;BME280;15815;46.760;19.604;2023-08-06T00:17:26;98934.63;;;22.77;96.21
28628;BME280;15815;46.760;19.604;2023-08-06T00:19:57;98938.28;;;22.84;96.29
28628;BME280;15815;46.760;19.604;2023-08-06T00:22:22;98934.38;;;22.81;95.67
28628;BME280;15815;46.760;19.604;2023-08-06T00:24:48;98937.25;;;22.81;95.08
28628;BME280;15815;46.760;19.604;2023-08-06T00:27:13;98946.06;;;22.66;96.40
28628;BME280;15815;46.760;19.604;2023-08-06T00:29:39;98957.00;;;22.62;95.85
28628;BME280;15815;46.760;19.604;2023-08-06T00:32:04;98956.72;;;22.66;95.96
28628;BME280;15815;46.760;19.604;2023-08-06T00:34:30;98951.50;;;22.70;95.72
28628;BME280;15815;46.760;19.604;2023-08-06T00:36:55;98953.59;;;22.69;96.33
28628;BME280;15815;46.760;19.604;2023-08-06T00:39:21;98938.50;;;22.69;95.85
28628;BME280;15815;46.760;19.604;2023-08-06T00:41:46;98956.75;;;22.77;95.76
28628;BME280;15815;46.760;19.604;2023-08-06T00:44:12;98958.81;;;22.76;94.81
28628;BME280;15815;46.760;19.604;2023-08-06T00:46:37;98953.59;;;22.69;94.55
28628;BME280;15815;46.760;19.604;2023-08-06T00:49:04;98957.25;;;22.53;96.50
28628;BME280;15815;46.760;19.604;2023-08-06T00:51:30;98949.44;;;22.54;95.98
28628;BME280;15815;46.760;19.604;2023-08-06T00:53:56;98959.34;;;22.64;95.20
28628;BME280;15815;46.760;19.604;2023-08-06T00:56:21;98947.38;;;22.60;95.67
28628;BME280;15815;46.760;19.604;2023-08-06T00:58:47;98954.91;;;22.63;96.05
28628;BME280;15815;46.760;19.604;2023-08-06T01:01:12;98957.50;;;22.61;95.54
28628;BME280;15815;46.760;19.604;2023-08-06T01:03:42;98960.09;;;22.70;96.03
28628;BME280;15815;46.760;19.604;2023-08-06T01:06:07;98962.97;;;22.64;95.86
28628;BME280;15815;46.760;19.604;2023-08-06T01:08:56;98960.63;;;22.63;97.02
28628;BME280;15815;46.760;19.604;2023-08-06T01:11:38;98955.16;;;22.59;96.72
28628;BME280;15815;46.760;19.604;2023-08-06T01:14:37;98954.66;;;22.61;96.41
28628;BME280;15815;46.760;19.604;2023-08-06T01:17:09;98958.81;;;22.48;96.17
28628;BME280;15815;46.760;19.604;2023-08-06T01:19:35;98951.25;;;22.23;98.84
28628;BME280;15815;46.760;19.604;2023-08-06T01:22:00;98951.00;;;22.32;97.71
28628;BME280;15815;46.760;19.604;2023-08-06T01:24:26;98948.13;;;22.38;96.58
28628;BME280;15815;46.760;19.604;2023-08-06T01:27:03;98950.97;;;22.21;97.95
28628;BME280;15815;46.760;19.604;2023-08-06T01:29:38;98950.47;;;22.28;97.59
28628;BME280;15815;46.760;19.604;2023-08-06T01:32:05;98954.78;;;21.96;99.38
28628;BME280;15815;46.760;19.604;2023-08-06T01:34:35;98942.84;;;22.03;100.00
28628;BME280;15815;46.760;19.604;2023-08-06T01:37:04;98936.91;;;22.12;99.16
28628;BME280;15815;46.760;19.604;2023-08-06T01:39:33;98928.09;;;22.21;97.17
28628;BME280;15815;46.760;19.604;2023-08-06T01:41:58;98933.03;;;22.20;95.30
28628;BME280;15815;46.760;19.604;2023-08-06T01:44:24;98932.38;;;21.88;95.70
28628;BME280;15815;46.760;19.604;2023-08-06T01:46:50;98917.28;;;21.82;96.00
28628;BME280;15815;46.760;19.604;2023-08-06T01:49:15;98905.31;;;21.73;97.16
28628;BME280;15815;46.760;19.604;2023-08-06T01:51:41;98913.84;;;21.56;96.89
28628;BME280;15815;46.760;19.604;2023-08-06T01:54:06;98907.81;;;21.43;96.59
28628;BME280;15815;46.760;19.604;2023-08-06T01:56:32;98900.75;;;21.33;97.19
28628;BME280;15815;46.760;19.604;2023-08-06T01:58:57;98902.53;;;21.30;96.92
28628;BME280;15815;46.760;19.604;2023-08-06T02:01:23;98893.00;;;21.39;96.75
28628;BME280;15815;46.760;19.604;2023-08-06T02:03:48;98904.47;;;21.55;96.10
28628;BME280;15815;46.760;19.604;2023-08-06T02:06:14;98893.72;;;21.34;95.14
28628;BME280;15815;46.760;19.604;2023-08-06T02:08:39;98909.03;;;21.31;95.79
28628;BME280;15815;46.760;19.604;2023-08-06T02:11:05;98896.84;;;21.36;95.09
28628;BME280;15815;46.760;19.604;2023-08-06T02:13:30;98895.03;;;21.33;95.95
28628;BME280;15815;46.760;19.604;2023-08-06T02:15:56;98893.44;;;21.26;96.04
28628;BME280;15815;46.760;19.604;2023-08-06T02:18:21;98891.03;;;21.13;95.81
28628;BME280;15815;46.760;19.604;2023-08-06T02:20:59;98908.31;;;20.93;95.91
28628;BME280;15815;46.760;19.604;2023-08-06T02:23:26;98909.31;;;20.90;95.32
28628;BME280;15815;46.760;19.604;2023-08-06T02:26:01;98900.94;;;20.81;95.62
28628;BME280;15815;46.760;19.604;2023-08-06T02:28:28;98893.28;;;20.61;96.09
28628;BME280;15815;46.760;19.604;2023-08-06T02:30:53;98905.44;;;20.56;96.15
28628;BME280;15815;46.760;19.604;2023-08-06T02:33:19;98900.28;;;20.60;96.49
28628;BME280;15815;46.760;19.604;2023-08-06T02:35:44;98891.19;;;20.56;96.47
28628;BME280;15815;46.760;19.604;2023-08-06T02:38:10;98887.13;;;20.74;95.66
28628;BME280;15815;46.760;19.604;2023-08-06T02:40:35;98895.16;;;20.70;95.52
28628;BME280;15815;46.760;19.604;2023-08-06T02:43:01;98893.59;;;20.68;95.48
28628;BME280;15815;46.760;19.604;2023-08-06T02:45:26;98886.03;;;20.60;94.56
28628;BME280;15815;46.760;19.604;2023-08-06T02:47:52;98885.75;;;20.58;94.45
28628;BME280;15815;46.760;19.604;2023-08-06T02:50:17;98895.59;;;20.57;94.64
28628;BME280;15815;46.760;19.604;2023-08-06T02:52:43;98892.75;;;20.57;94.52
28628;BME280;15815;46.760;19.604;2023-08-06T02:55:08;98890.41;;;20.55;94.80
28628;BME280;15815;46.760;19.604;2023-08-06T02:57:34;98885.31;;;20.39;95.36
28628;BME280;15815;46.760;19.604;2023-08-06T02:59:59;98889.28;;;20.47;95.55
28628;BME280;15815;46.760;19.604;2023-08-06T03:02:25;98884.13;;;20.25;96.91
28628;BME280;15815;46.760;19.604;2023-08-06T03:04:50;98879.00;;;20.29;95.78
28628;BME280;15815;46.760;19.604;2023-08-06T03:07:16;98877.78;;;20.10;98.12
28628;BME280;15815;46.760;19.604;2023-08-06T03:09:41;98882.44;;;20.08;98.52
28628;BME280;15815;46.760;19.604;2023-08-06T03:12:07;98883.09;;;19.97;98.70
28628;BME280;15815;46.760;19.604;2023-08-06T03:14:32;98887.38;;;19.81;100.00
28628;BME280;15815;46.760;19.604;2023-08-06T03:16:58;98903.19;;;19.82;100.00
28628;BME280;15815;46.760;19.604;2023-08-06T03:19:23;98885.28;;;19.82;100.00
28628;BME280;15815;46.760;19.604;2023-08-06T03:21:49;98902.44;;;19.87;100.00
28628;BME280;15815;46.760;19.604;2023-08-06T03:24:14;98887.09;;;19.79;100.00
28628;BME280;15815;46.760;19.604;2023-08-06T03:26:40;98894.44;;;19.91;100.00
28628;BME280;15815;46.760;19.604;2023-08-06T03:29:05;98878.34;;;19.88;100.00
28628;BME280;15815;46.760;19.604;2023-08-06T03:31:31;98882.50;;;19.87;100.00
28628;BME280;15815;46.760;19.604;2023-08-06T03:33:56;98867.41;;;19.81;100.00
28628;BME280;15815;46.760;19.604;2023-08-06T03:36:23;98882.41;;;19.76;100.00
28628;BME280;15815;46.760;19.604;2023-08-06T03:38:48;98877.19;;;19.74;100.00
28628;BME280;15815;46.760;19.604;2023-08-06T03:41:14;98884.00;;;19.83;100.00
28628;BME280;15815;46.760;19.604;2023-08-06T03:43:39;98880.59;;;19.79;100.00
28628;BME280;15815;46.760;19.604;2023-08-06T03:46:05;98880.56;;;19.73;100.00
28628;BME280;15815;46.760;19.604;2023-08-06T03:48:30;98879.25;;;19.74;100.00
28628;BME280;15815;46.760;19.604;2023-08-06T03:51:02;98869.19;;;19.79;100.00
28628;BME280;15815;46.760;19.604;2023-08-06T03:53:27;98855.69;;;19.73;100.00
28628;BME280;15815;46.760;19.604;2023-08-06T03:55:53;98846.81;;;19.71;100.00
28628;BME280;15815;46.760;19.604;2023-08-06T03:58:18;98846.44;;;19.84;100.00
28628;BME280;15815;46.760;19.604;2023-08-06T04:00:43;98843.91;;;19.92;100.00
28628;BME280;15815;46.760;19.604;2023-08-06T04:03:09;98850.16;;;19.96;100.00
28628;BME280;15815;46.760;19.604;2023-08-06T04:05:34;98838.16;;;19.86;100.00
28628;BME280;15815;46.760;19.604;2023-08-06T04:08:02;98845.19;;;19.91;100.00
28628;BME280;15815;46.760;19.604;2023-08-06T04:10:27;98828.03;;;19.85;100.00
28628;BME280;15815;46.760;19.604;2023-08-06T04:12:53;98831.84;;;20.02;100.00
28628;BME280;15815;46.760;19.604;2023-08-06T04:15:19;98824.22;;;19.94;100.00
28628;BME280;15815;46.760;19.604;2023-08-06T04:17:45;98830.63;;;19.83;100.00
28628;BME280;15815;46.760;19.604;2023-08-06T04:20:10;98827.03;;;19.88;100.00
28628;BME280;15815;46.760;19.604;2023-08-06T04:22:45;98814.13;;;19.93;100.00
28628;BME280;15815;46.760;19.604;2023-08-06T04:25:10;98820.63;;;19.99;100.00
28628;BME280;15815;46.760;19.604;2023-08-06T04:27:36;98799.63;;;19.96;100.00
28628;BME280;15815;46.760;19.604;2023-08-06T04:30:06;98810.94;;;20.17;100.00
28628;BME280;15815;46.760;19.604;2023-08-06T04:32:31;98789.72;;;20.23;100.00
28628;BME280;15815;46.760;19.604;2023-08-06T04:34:59;98810.91;;;20.43;99.49
28628;BME280;15815;46.760;19.604;2023-08-06T04:37:24;98799.22;;;20.41;100.00
28628;BME280;15815;46.760;19.604;2023-08-06T04:39:50;98804.22;;;20.51;100.00
28628;BME280;15815;46.760;19.604;2023-08-06T04:42:16;98793.06;;;20.53;99.60
28628;BME280;15815;46.760;19.604;2023-08-06T04:44:41;98789.66;;;20.49;100.00
28628;BME280;15815;46.760;19.604;2023-08-06T04:47:07;98782.63;;;20.45;100.00
28628;BME280;15815;46.760;19.604;2023-08-06T04:49:33;98778.31;;;20.55;100.00
28628;BME280;15815;46.760;19.604;2023-08-06T04:51:59;98769.50;;;20.58;99.44
28628;BME280;15815;46.760;19.604;2023-08-06T04:54:25;98758.34;;;20.55;99.31
28628;BME280;15815;46.760;19.604;2023-08-06T04:56:51;98772.03;;;20.51;100.00
28628;BME280;15815;46.760;19.604;2023-08-06T04:59:18;98776.28;;;20.66;100.00
28628;BME280;15815;46.760;19.604;2023-08-06T05:02:02;98773.94;;;20.65;100.00
28628;BME280;15815;46.760;19.604;2023-08-06T05:04:28;98769.19;;;20.51;100.00
28628;BME280;15815;46.760;19.604;2023-08-06T05:06:54;98793.66;;;20.63;100.00
28628;BME280;15815;46.760;19.604;2023-08-06T05:09:19;98789.25;;;20.62;100.00
28628;BME280;15815;46.760;19.604;2023-08-06T05:11:45;98803.19;;;20.54;100.00
28628;BME280;15815;46.760;19.604;2023-08-06T05:14:12;98805.78;;;20.52;100.00
28628;BME280;15815;46.760;19.604;2023-08-06T05:16:38;98792.25;;;20.47;100.00
28628;BME280;15815;46.760;19.604;2023-08-06T05:19:03;98781.88;;;20.44;100.00
28628;BME280;15815;46.760;19.604;2023-08-06T05:21:28;98778.53;;;20.51;100.00
28628;BME280;15815;46.760;19.604;2023-08-06T05:23:54;98792.38;;;20.70;100.00
28628;BME280;15815;46.760;19.604;2023-08-06T05:26:21;98795.50;;;20.72;100.00
28628;BME280;15815;46.760;19.604;2023-08-06T05:28:47;98794.44;;;20.63;100.00
28628;BME280;15815;46.760;19.604;2023-08-06T05:31:15;98799.66;;;20.71;100.00
28628;BME280;15815;46.760;19.604;2023-08-06T05:33:41;98790.28;;;20.64;100.00
28628;BME280;15815;46.760;19.604;2023-08-06T05:36:06;98788.78;;;20.75;100.00
28628;BME280;15815;46.760;19.604;2023-08-06T05:38:32;98791.91;;;20.77;98.69
28628;BME280;15815;46.760;19.604;2023-08-06T05:40:57;98782.47;;;20.59;99.37
28628;BME280;15815;46.760;19.604;2023-08-06T05:43:23;98791.59;;;20.69;99.17
28628;BME280;15815;46.760;19.604;2023-08-06T05:45:51;98788.22;;;20.65;99.01
28628;BME280;15815;46.760;19.604;2023-08-06T05:48:17;98787.72;;;20.72;98.48
28628;BME280;15815;46.760;19.604;2023-08-06T05:50:43;98805.38;;;20.71;98.67
28628;BME280;15815;46.760;19.604;2023-08-06T05:53:08;98802.72;;;20.61;98.41
28628;BME280;15815;46.760;19.604;2023-08-06T05:55:34;98792.94;;;20.36;98.27
28628;BME280;15815;46.760;19.604;2023-08-06T05:58:00;98812.25;;;20.53;98.04
28628;BME280;15815;46.760;19.604;2023-08-06T06:00:25;98818.28;;;20.60;98.44
28628;BME280;15815;46.760;19.604;2023-08-06T06:02:51;98814.97;;;20.67;98.39
28628;BME280;15815;46.760;19.604;2023-08-06T06:05:16;98800.06;;;20.52;97.86
28628;BME280;15815;46.760;19.604;2023-08-06T06:07:42;98815.41;;;20.55;97.93
28628;BME280;15815;46.760;19.604;2023-08-06T06:10:08;98827.66;;;20.66;97.94
28628;BME280;15815;46.760;19.604;2023-08-06T06:12:38;98835.19;;;20.64;98.39
28628;BME280;15815;46.760;19.604;2023-08-06T06:15:04;98831.00;;;20.59;97.50
28628;BME280;15815;46.760;19.604;2023-08-06T06:17:30;98827.75;;;20.41;98.72
28628;BME280;15815;46.760;19.604;2023-08-06T06:19:55;98835.13;;;20.27;97.77
28628;BME280;15815;46.760;19.604;2023-08-06T06:22:21;98833.63;;;20.31;98.25
28628;BME280;15815;46.760;19.604;2023-08-06T06:24:46;98826.69;;;20.06;98.62
28628;BME280;15815;46.760;19.604;2023-08-06T06:27:12;98830.28;;;20.33;98.60
28628;BME280;15815;46.760;19.604;2023-08-06T06:29:38;98830.25;;;20.27;98.17
28628;BME280;15815;46.760;19.604;2023-08-06T06:32:07;98830.72;;;20.26;99.16
28628;BME280;15815;46.760;19.604;2023-08-06T06:34:32;98823.72;;;20.27;98.89
28628;BME280;15815;46.760;19.604;2023-08-06T06:36:58;98844.31;;;20.36;98.50
28628;BME280;15815;46.760;19.604;2023-08-06T06:39:23;98829.16;;;20.25;97.84
28628;BME280;15815;46.760;19.604;2023-08-06T06:41:49;98843.28;;;20.40;97.77
28628;BME280;15815;46.760;19.604;2023-08-06T06:44:14;98830.28;;;20.33;98.41
28628;BME280;15815;46.760;19.604;2023-08-06T06:46:41;98843.38;;;20.51;98.11
28628;BME280;15815;46.760;19.604;2023-08-06T06:49:06;98846.19;;;20.45;98.10
28628;BME280;15815;46.760;19.604;2023-08-06T06:51:32;98838.72;;;20.53;98.39
28628;BME280;15815;46.760;19.604;2023-08-06T06:53:57;98851.38;;;20.41;97.16
28628;BME280;15815;46.760;19.604;2023-08-06T06:56:26;98855.94;;;20.33;98.28
28628;BME280;15815;46.760;19.604;2023-08-06T06:58:51;98876.69;;;20.33;98.37
28628;BME280;15815;46.760;19.604;2023-08-06T07:01:17;98881.34;;;20.31;99.27
28628;BME280;15815;46.760;19.604;2023-08-06T07:03:42;98882.28;;;20.48;99.27
28628;BME280;15815;46.760;19.604;2023-08-06T07:06:08;98862.41;;;20.28;98.76
28628;BME280;15815;46.760;19.604;2023-08-06T07:08:34;98875.06;;;20.27;97.82
28628;BME280;15815;46.760;19.604;2023-08-06T07:11:02;98869.44;;;20.32;97.89
28628;BME280;15815;46.760;19.604;2023-08-06T07:13:27;98878.69;;;20.53;98.33
28628;BME280;15815;46.760;19.604;2023-08-06T07:15:54;98882.53;;;20.45;96.94
28628;BME280;15815;46.760;19.604;2023-08-06T07:18:20;98879.56;;;20.33;96.99
28628;BME280;15815;46.760;19.604;2023-08-06T07:20:55;98875.69;;;20.36;96.25
28628;BME280;15815;46.760;19.604;2023-08-06T07:23:23;98870.88;;;20.48;95.91
28628;BME280;15815;46.760;19.604;2023-08-06T07:25:48;98859.19;;;20.46;96.38
28628;BME280;15815;46.760;19.604;2023-08-06T07:28:14;98867.06;;;20.57;96.05
28628;BME280;15815;46.760;19.604;2023-08-06T07:30:43;98868.66;;;20.63;97.17
28628;BME280;15815;46.760;19.604;2023-08-06T07:33:09;98883.44;;;20.62;95.54
28628;BME280;15815;46.760;19.604;2023-08-06T07:35:35;98900.53;;;20.56;95.70
28628;BME280;15815;46.760;19.604;2023-08-06T07:38:01;98896.72;;;20.71;96.53
28628;BME280;15815;46.760;19.604;2023-08-06T07:40:27;98892.06;;;20.73;94.72
28628;BME280;15815;46.760;19.604;2023-08-06T07:42:52;98889.13;;;21.05;96.44
28628;BME280;15815;46.760;19.604;2023-08-06T07:45:18;98889.97;;;21.11;93.35
28628;BME280;15815;46.760;19.604;2023-08-06T07:47:44;98884.47;;;21.07;95.54
28628;BME280;15815;46.760;19.604;2023-08-06T07:50:09;98880.53;;;20.99;92.66
28628;BME280;15815;46.760;19.604;2023-08-06T07:52:35;98886.28;;;21.05;95.55
28628;BME280;15815;46.760;19.604;2023-08-06T07:55:01;98886.44;;;20.84;92.89
28628;BME280;15815;46.760;19.604;2023-08-06T07:57:27;98888.78;;;20.86;95.19
28628;BME280;15815;46.760;19.604;2023-08-06T07:59:52;98888.97;;;20.77;95.75
28628;BME280;15815;46.760;19.604;2023-08-06T08:04:59;98890.75;;;20.68;93.75
28628;BME280;15815;46.760;19.604;2023-08-06T08:07:26;98888.66;;;20.37;90.90
28628;BME280;15815;46.760;19.604;2023-08-06T08:09:51;98884.22;;;20.31;90.08
28628;BME280;15815;46.760;19.604;2023-08-06T08:12:18;98901.59;;;20.33;91.03
28628;BME280;15815;46.760;19.604;2023-08-06T08:14:43;98904.50;;;20.38;92.48
28628;BME280;15815;46.760;19.604;2023-08-06T08:17:08;98907.31;;;20.33;90.78
28628;BME280;15815;46.760;19.604;2023-08-06T08:19:34;98907.31;;;20.33;91.06
28628;BME280;15815;46.760;19.604;2023-08-06T08:22:00;98904.44;;;20.33;92.84
28628;BME280;15815;46.760;19.604;2023-08-06T08:24:25;98907.59;;;20.35;92.55
28628;BME280;15815;46.760;19.604;2023-08-06T08:26:54;98897.84;;;20.47;93.22
28628;BME280;15815;46.760;19.604;2023-08-06T08:29:20;98903.38;;;20.56;91.98
28628;BME280;15815;46.760;19.604;2023-08-06T08:31:45;98911.56;;;20.43;90.49
28628;BME280;15815;46.760;19.604;2023-08-06T08:34:11;98897.09;;;20.52;92.03
28628;BME280;15815;46.760;19.604;2023-08-06T08:36:36;98910.41;;;20.61;91.78
28628;BME280;15815;46.760;19.604;2023-08-06T08:39:02;98906.16;;;20.51;89.61
28628;BME280;15815;46.760;19.604;2023-08-06T08:41:32;98897.38;;;20.54;91.88
28628;BME280;15815;46.760;19.604;2023-08-06T08:43:58;98905.25;;;20.65;91.90
28628;BME280;15815;46.760;19.604;2023-08-06T08:46:27;98910.72;;;20.68;89.92
28628;BME280;15815;46.760;19.604;2023-08-06T08:48:55;98902.38;;;20.59;87.50
28628;BME280;15815;46.760;19.604;2023-08-06T08:51:23;98898.06;;;20.81;88.73
28628;BME280;15815;46.760;19.604;2023-08-06T08:53:49;98896.91;;;20.98;91.17
28628;BME280;15815;46.760;19.604;2023-08-06T08:56:19;98910.75;;;21.11;90.67
28628;BME280;15815;46.760;19.604;2023-08-06T08:58:44;98911.13;;;21.36;88.63
28628;BME280;15815;46.760;19.604;2023-08-06T09:01:10;98900.56;;;21.47;91.86
28628;BME280;15815;46.760;19.604;2023-08-06T09:03:39;98907.34;;;21.61;87.24
28628;BME280;15815;46.760;19.604;2023-08-06T09:06:05;98911.75;;;21.62;87.46
28628;BME280;15815;46.760;19.604;2023-08-06T09:08:37;98921.66;;;21.61;87.16
28628;BME280;15815;46.760;19.604;2023-08-06T09:11:05;98926.88;;;21.68;88.89
28628;BME280;15815;46.760;19.604;2023-08-06T09:13:36;98925.31;;;21.67;89.46
28628;BME280;15815;46.760;19.604;2023-08-06T09:16:02;98915.75;;;21.87;89.63
28628;BME280;15815;46.760;19.604;2023-08-06T09:18:29;98928.88;;;22.49;87.95
28628;BME280;15815;46.760;19.604;2023-08-06T09:20:57;98932.50;;;22.72;90.64
28628;BME280;15815;46.760;19.604;2023-08-06T09:23:35;98930.72;;;22.86;85.25
28628;BME280;15815;46.760;19.604;2023-08-06T09:26:01;98934.59;;;22.94;83.98
28628;BME280;15815;46.760;19.604;2023-08-06T09:28:39;98926.53;;;22.76;80.04
28628;BME280;15815;46.760;19.604;2023-08-06T09:31:04;98929.38;;;22.70;85.11
28628;BME280;15815;46.760;19.604;2023-08-06T09:33:30;98931.22;;;22.68;83.08
28628;BME280;15815;46.760;19.604;2023-08-06T09:35:55;98935.38;;;22.33;80.33
28628;BME280;15815;46.760;19.604;2023-08-06T09:38:21;98939.03;;;22.28;79.85
28628;BME280;15815;46.760;19.604;2023-08-06T09:40:47;98935.38;;;22.33;80.36
28628;BME280;15815;46.760;19.604;2023-08-06T09:43:12;98942.66;;;22.40;80.05
28628;BME280;15815;46.760;19.604;2023-08-06T09:45:38;98943.72;;;22.48;79.54
28628;BME280;15815;46.760;19.604;2023-08-06T09:48:05;98942.94;;;22.47;79.36
28628;BME280;15815;46.760;19.604;2023-08-06T09:50:32;98938.50;;;22.69;80.50
28628;BME280;15815;46.760;19.604;2023-08-06T09:53:00;98954.91;;;22.57;79.06
28628;BME280;15815;46.760;19.604;2023-08-06T09:55:28;98955.69;;;22.46;77.75
28628;BME280;15815;46.760;19.604;2023-08-06T09:57:54;98958.00;;;22.42;75.75
28628;BME280;15815;46.760;19.604;2023-08-06T10:00:22;98954.63;;;22.27;78.26
28628;BME280;15815;46.760;19.604;2023-08-06T10:02:48;98951.16;;;21.95;76.01
28628;BME280;15815;46.760;19.604;2023-08-06T10:05:15;98960.84;;;22.14;76.65
28628;BME280;15815;46.760;19.604;2023-08-06T10:07:43;98968.38;;;22.12;76.31
28628;BME280;15815;46.760;19.604;2023-08-06T10:10:09;98978.31;;;22.28;76.16
28628;BME280;15815;46.760;19.604;2023-08-06T10:12:43;98981.16;;;22.33;74.04
28628;BME280;15815;46.760;19.604;2023-08-06T10:15:13;98971.53;;;22.42;76.12
28628;BME280;15815;46.760;19.604;2023-08-06T10:17:41;98972.38;;;22.76;76.33
28628;BME280;15815;46.760;19.604;2023-08-06T10:20:08;98979.38;;;22.64;74.01
28628;BME280;15815;46.760;19.604;2023-08-06T10:22:34;98972.34;;;22.65;76.27
28628;BME280;15815;46.760;19.604;2023-08-06T10:25:01;98972.34;;;22.65;73.54
28628;BME280;15815;46.760;19.604;2023-08-06T10:30:20;98984.81;;;22.34;74.88
28628;BME280;15815;46.760;19.604;2023-08-06T10:32:49;98975.19;;;22.26;73.98
28628;BME280;15815;46.760;19.604;2023-08-06T10:38:12;98976.00;;;22.60;72.61
28628;BME280;15815;46.760;19.604;2023-08-06T10:40:48;98982.25;;;22.75;72.87
28628;BME280;15815;46.760;19.604;2023-08-06T10:43:30;98975.25;;;22.93;72.50
28628;BME280;15815;46.760;19.604;2023-08-06T10:45:58;98986.16;;;22.94;71.35
28628;BME280;15815;46.760;19.604;2023-08-06T10:48:45;98982.53;;;23.10;68.83
28628;BME280;15815;46.760;19.604;2023-08-06T10:51:14;98984.31;;;23.36;72.38
28628;BME280;15815;46.760;19.604;2023-08-06T10:53:45;98985.91;;;23.15;69.01
28628;BME280;15815;46.760;19.604;2023-08-06T10:56:15;98981.75;;;22.93;68.89
28628;BME280;15815;46.760;19.604;2023-08-06T10:58:41;98988.00;;;22.97;71.16
28628;BME280;15815;46.760;19.604;2023-08-06T11:01:07;98996.59;;;22.80;70.71
28628;BME280;15815;46.760;19.604;2023-08-06T11:03:33;98978.09;;;22.76;68.97
28628;BME280;15815;46.760;19.604;2023-08-06T11:05:59;98988.19;;;22.43;70.50
28628;BME280;15815;46.760;19.604;2023-08-06T11:10:51;99006.44;;;22.57;72.59
28628;BME280;15815;46.760;19.604;2023-08-06T11:13:17;98992.41;;;22.48;70.06
28628;BME280;15815;46.760;19.604;2023-08-06T11:15:42;99014.47;;;22.42;70.81
28628;BME280;15815;46.760;19.604;2023-08-06T11:18:09;99007.69;;;22.23;70.06
28628;BME280;15815;46.760;19.604;2023-08-06T11:20:34;99008.94;;;22.10;70.36
28628;BME280;15815;46.760;19.604;2023-08-06T11:23:00;99008.47;;;22.23;70.47
28628;BME280;15815;46.760;19.604;2023-08-06T11:25:25;99005.09;;;22.30;70.97
28628;BME280;15815;46.760;19.604;2023-08-06T11:27:51;99011.88;;;22.27;71.43
28628;BME280;15815;46.760;19.604;2023-08-06T11:30:16;99012.84;;;22.13;71.46
28628;BME280;15815;46.760;19.604;2023-08-06T11:32:47;99010.75;;;22.08;72.74
28628;BME280;15815;46.760;19.604;2023-08-06T11:35:17;99019.88;;;22.12;72.58
28628;BME280;15815;46.760;19.604;2023-08-06T11:37:46;99020.09;;;22.03;73.83
28628;BME280;15815;46.760;19.604;2023-08-06T11:40:14;99011.69;;;21.82;73.06
28628;BME280;15815;46.760;19.604;2023-08-06T11:42:40;99015.53;;;21.68;71.13
28628;BME280;15815;46.760;19.604;2023-08-06T11:45:06;99036.38;;;21.80;73.06
28628;BME280;15815;46.760;19.604;2023-08-06T11:47:32;99034.56;;;21.82;71.21
28628;BME280;15815;46.760;19.604;2023-08-06T11:49:57;99031.16;;;21.78;72.09
28628;BME280;15815;46.760;19.604;2023-08-06T11:52:24;99033.78;;;21.82;73.35
28628;BME280;15815;46.760;19.604;2023-08-06T11:55:03;99040.03;;;21.86;71.90
28628;BME280;15815;46.760;19.604;2023-08-06T11:57:33;99048.16;;;21.99;72.23
28628;BME280;15815;46.760;19.604;2023-08-06T12:00:06;99026.56;;;21.98;71.32
28628;BME280;15815;46.760;19.604;2023-08-06T12:02:32;99037.75;;;22.01;71.51
28628;BME280;15815;46.760;19.604;2023-08-06T12:05:14;99043.28;;;22.16;73.20
28628;BME280;15815;46.760;19.604;2023-08-06T12:07:43;99038.91;;;22.26;72.49
28628;BME280;15815;46.760;19.604;2023-08-06T12:10:09;99044.66;;;22.26;73.02
28628;BME280;15815;46.760;19.604;2023-08-06T12:12:35;99045.44;;;22.27;72.10
28628;BME280;15815;46.760;19.604;2023-08-06T12:15:02;99045.94;;;22.19;72.40
28628;BME280;15815;46.760;19.604;2023-08-06T12:17:28;99050.88;;;22.19;69.30
28628;BME280;15815;46.760;19.604;2023-08-06T12:19:54;99050.34;;;22.20;69.75
28628;BME280;15815;46.760;19.604;2023-08-06T12:22:19;99039.97;;;22.29;72.36
28628;BME280;15815;46.760;19.604;2023-08-06T12:24:46;99047.78;;;22.39;70.89
28628;BME280;15815;46.760;19.604;2023-08-06T12:27:13;99044.13;;;22.33;71.06
28628;BME280;15815;46.760;19.604;2023-08-06T12:29:45;99038.16;;;22.31;69.66
28628;BME280;15815;46.760;19.604;2023-08-06T12:32:12;99040.75;;;22.29;69.90
28628;BME280;15815;46.760;19.604;2023-08-06T12:34:41;99031.91;;;22.33;69.28
28628;BME280;15815;46.760;19.604;2023-08-06T12:37:07;99052.47;;;22.31;69.50
28628;BME280;15815;46.760;19.604;2023-08-06T12:39:33;99050.41;;;22.37;71.39
28628;BME280;15815;46.760;19.604;2023-08-06T12:42:00;99042.06;;;22.34;68.91
28628;BME280;15815;46.760;19.604;2023-08-06T12:44:25;99045.88;;;22.14;67.96
28628;BME280;15815;46.760;19.604;2023-08-06T12:46:51;99059.94;;;22.12;69.81
28628;BME280;15815;46.760;19.604;2023-08-06T12:49:17;99057.09;;;22.17;71.52
28628;BME280;15815;46.760;19.604;2023-08-06T12:51:45;99054.94;;;22.01;68.46
28628;BME280;15815;46.760;19.604;2023-08-06T12:54:11;99056.94;;;21.89;69.21
28628;BME280;15815;46.760;19.604;2023-08-06T12:56:36;99049.84;;;22.28;71.64